createdAt,value
2023-05-05T00:01:25.003Z,10.10
2023-05-05T00:03:55.531Z,9.30
2023-05-05T00:06:25.057Z,11.10
2023-05-05T00:08:54.449Z,10.30
2023-05-05T00:11:22.739Z,10.50
2023-05-05T00:13:52.563Z,10.30
2023-05-05T00:16:23.255Z,9.60
2023-05-05T00:18:53.894Z,9.70
2023-05-05T00:21:23.200Z,10.80
2023-05-05T00:23:52.749Z,12.20
2023-05-05T00:26:22.504Z,10.50
2023-05-05T00:28:52.299Z,10.00
2023-05-05T00:31:21.694Z,12.70
2023-05-05T00:33:51.190Z,11.20
2023-05-05T00:36:20.614Z,10.60
2023-05-05T00:38:50.037Z,11.30
2023-05-05T00:41:20.745Z,12.10
2023-05-05T00:43:49.989Z,12.80
2023-05-05T00:46:25.647Z,10.20
2023-05-05T00:48:54.743Z,12.50
2023-05-05T00:51:24.914Z,11.10
2023-05-05T00:56:24.635Z,10.60
2023-05-05T00:58:54.466Z,12.60
2023-05-05T01:01:24.238Z,10.60
2023-05-05T01:03:52.597Z,11.60
2023-05-05T01:06:42.897Z,10.40
2023-05-05T01:09:26.991Z,12.60
2023-05-05T01:12:11.334Z,10.30
2023-05-05T01:14:42.093Z,10.60
2023-05-05T01:17:19.191Z,11.30
2023-05-05T01:20:03.782Z,13.00
2023-05-05T01:22:41.815Z,13.10
2023-05-05T01:25:31.817Z,10.90
2023-05-05T01:28:21.597Z,11.50
2023-05-05T01:31:09.927Z,11.60
2023-05-05T01:33:49.794Z,12.60
2023-05-05T01:36:24.548Z,11.80
2023-05-05T01:39:00.566Z,11.40
2023-05-05T01:41:38.956Z,11.00
2023-05-05T01:44:09.071Z,13.50
2023-05-05T01:46:39.031Z,12.50
2023-05-05T01:49:11.159Z,11.80
2023-05-05T01:51:40.816Z,13.70
2023-05-05T01:54:10.532Z,13.40
2023-05-05T01:56:41.812Z,11.30
2023-05-05T01:59:11.534Z,13.10
2023-05-05T02:01:45.849Z,12.80
2023-05-05T02:04:23.771Z,11.50
2023-05-05T02:06:53.240Z,10.90
2023-05-05T02:09:26.295Z,12.80
2023-05-05T02:11:56.259Z,11.30
2023-05-05T02:14:28.023Z,11.30
2023-05-05T02:16:59.098Z,11.90
2023-05-05T02:19:36.144Z,11.40
2023-05-05T02:22:06.089Z,11.30
2023-05-05T02:27:08.780Z,11.40
2023-05-05T02:29:47.466Z,10.90
2023-05-05T02:32:26.260Z,12.20
2023-05-05T02:35:03.065Z,11.40
2023-05-05T02:37:35.943Z,9.70
2023-05-05T02:40:08.944Z,11.00
2023-05-05T02:42:43.131Z,10.60
2023-05-05T02:45:16.256Z,11.90
2023-05-05T02:47:47.693Z,10.50
2023-05-05T02:50:17.458Z,9.80
2023-05-05T02:52:56.428Z,9.50
2023-05-05T02:55:27.484Z,9.50
2023-05-05T02:58:06.562Z,9.30
2023-05-05T03:00:49.615Z,10.40
2023-05-05T03:03:26.986Z,10.30
2023-05-05T03:06:09.592Z,9.60
2023-05-05T03:08:45.224Z,9.80
2023-05-05T03:11:25.354Z,11.30
2023-05-05T03:14:06.511Z,9.30
2023-05-05T03:16:37.798Z,10.90
2023-05-05T03:19:12.612Z,10.10
2023-05-05T03:21:45.184Z,11.70
2023-05-05T03:24:15.547Z,10.50
2023-05-05T03:26:50.832Z,11.50
2023-05-05T03:29:23.960Z,11.60
2023-05-05T03:31:54.268Z,10.50
2023-05-05T03:34:25.050Z,10.50
2023-05-05T03:36:54.565Z,10.60
2023-05-05T03:39:24.058Z,12.30
2023-05-05T03:41:55.141Z,13.00
2023-05-05T03:44:24.318Z,10.60
2023-05-05T03:46:52.450Z,10.60
2023-05-05T03:54:23.314Z,12.20
2023-05-05T04:04:20.718Z,12.40
2023-05-05T04:06:51.591Z,11.60
2023-05-05T04:09:22.078Z,10.60
2023-05-05T04:14:22.060Z,10.50
2023-05-05T04:16:50.421Z,10.60
2023-05-05T04:19:21.635Z,11.10
2023-05-05T04:24:24.867Z,10.80
2023-05-05T04:26:55.703Z,10.60
2023-05-05T04:29:25.214Z,10.20
2023-05-05T04:31:56.108Z,12.30
2023-05-05T04:36:54.404Z,10.00
2023-05-05T04:39:25.576Z,10.20
2023-05-05T04:41:55.358Z,10.40
2023-05-05T04:44:24.782Z,13.00
2023-05-05T04:46:54.522Z,13.20
2023-05-05T04:51:53.225Z,12.90
2023-05-05T04:54:23.048Z,11.20
2023-05-05T04:56:55.504Z,12.90
2023-05-05T05:04:27.047Z,14.40
2023-05-05T05:06:59.303Z,13.10
2023-05-05T05:09:29.597Z,12.70
2023-05-05T05:12:04.867Z,13.40
2023-05-05T05:14:39.022Z,13.20
2023-05-05T05:19:39.768Z,13.60
2023-05-05T05:22:09.370Z,14.90
2023-05-05T05:24:42.736Z,14.60
2023-05-05T05:27:13.819Z,14.30
2023-05-05T05:29:47.789Z,14.80
2023-05-05T05:32:16.786Z,14.10
2023-05-05T05:34:47.033Z,13.80
2023-05-05T05:39:44.400Z,13.70
2023-05-05T05:42:15.062Z,13.40
2023-05-05T05:44:45.640Z,13.40
2023-05-05T05:47:14.366Z,13.10
2023-05-05T05:49:43.716Z,13.10
2023-05-05T05:52:14.420Z,12.80
2023-05-05T05:54:42.965Z,12.50
2023-05-05T05:57:12.157Z,12.60
2023-05-05T05:59:41.984Z,15.00
2023-05-05T06:02:12.776Z,13.00
2023-05-05T06:04:41.128Z,13.00
2023-05-05T06:07:10.228Z,15.60
2023-05-05T06:12:08.554Z,13.90
2023-05-05T06:14:37.963Z,16.50
2023-05-05T06:17:09.088Z,17.10
2023-05-05T06:19:39.704Z,15.80
2023-05-05T06:22:10.471Z,17.50
2023-05-05T06:24:40.046Z,17.90
2023-05-05T06:27:10.960Z,15.70
2023-05-05T06:32:10.515Z,15.40
2023-05-05T06:37:07.566Z,16.20
2023-05-05T06:39:37.102Z,15.30
2023-05-05T06:47:08.309Z,13.40
2023-05-05T06:49:37.962Z,13.80
2023-05-05T06:54:36.489Z,14.10
2023-05-05T06:57:05.861Z,13.50
2023-05-05T06:59:35.401Z,12.00
2023-05-05T07:02:04.846Z,14.00
2023-05-05T07:07:04.402Z,14.70
2023-05-05T07:09:33.844Z,12.90
2023-05-05T07:12:02.238Z,12.20
2023-05-05T07:14:31.804Z,14.40
2023-05-05T07:16:59.908Z,16.40
2023-05-05T07:19:29.507Z,14.90
2023-05-05T07:21:59.020Z,13.80
2023-05-05T07:24:28.552Z,16.00
2023-05-05T07:26:58.065Z,13.50
2023-05-05T07:29:26.642Z,13.80
2023-05-05T07:31:56.237Z,14.10
2023-05-05T07:34:24.611Z,14.60
2023-05-05T07:36:53.435Z,17.40
2023-05-05T07:39:22.140Z,16.80
2023-05-05T07:41:53.166Z,17.00
2023-05-05T07:46:54.106Z,15.50
2023-05-05T07:49:23.616Z,15.20
2023-05-05T07:51:53.391Z,16.40
2023-05-05T07:54:21.983Z,17.00
2023-05-05T07:56:51.992Z,15.00
2023-05-05T07:59:20.435Z,15.10
2023-05-05T08:01:50.019Z,16.40
2023-05-05T08:04:18.608Z,16.10
2023-05-05T08:06:47.202Z,17.70
2023-05-05T08:11:46.735Z,15.60
2023-05-05T08:14:18.868Z,15.90
2023-05-05T08:16:48.302Z,16.10
2023-05-05T08:19:28.956Z,17.80
2023-05-05T08:22:01.230Z,17.70
2023-05-05T08:24:29.723Z,16.80
2023-05-05T08:26:59.602Z,16.30
2023-05-05T08:29:30.449Z,16.10
2023-05-05T08:34:28.798Z,16.70
2023-05-05T08:36:58.100Z,17.10
2023-05-05T08:39:26.480Z,16.00
2023-05-05T08:41:54.761Z,16.20
2023-05-05T08:44:23.041Z,16.20
2023-05-05T08:46:54.957Z,16.70
2023-05-05T08:49:26.693Z,17.10
2023-05-05T08:51:55.908Z,19.40
2023-05-05T08:54:28.294Z,20.30
2023-05-05T08:57:02.300Z,19.30
2023-05-05T08:59:34.689Z,20.30
2023-05-05T09:02:06.328Z,21.90
2023-05-05T09:04:36.274Z,20.60
2023-05-05T09:07:06.034Z,21.80
2023-05-05T09:09:36.008Z,23.40
2023-05-05T09:12:05.767Z,21.50
2023-05-05T09:14:34.156Z,22.10
2023-05-05T09:17:05.592Z,22.90
2023-05-05T09:19:36.287Z,22.50
2023-05-05T09:22:04.530Z,21.70
2023-05-05T09:24:33.999Z,22.30
2023-05-05T09:27:23.054Z,21.20
2023-05-05T09:32:25.363Z,22.60
2023-05-05T09:35:01.331Z,22.70
2023-05-05T09:37:32.918Z,24.20
2023-05-05T09:40:02.520Z,22.10
2023-05-05T09:42:32.041Z,24.20
2023-05-05T09:45:01.393Z,23.10
2023-05-05T09:47:38.679Z,24.60
2023-05-05T09:50:12.501Z,23.50
2023-05-05T09:52:41.909Z,24.10
2023-05-05T09:55:19.052Z,26.10
2023-05-05T09:57:47.594Z,25.40
2023-05-05T10:00:19.135Z,26.20
2023-05-05T10:02:49.108Z,24.90
2023-05-05T10:05:19.918Z,25.80
2023-05-05T10:07:49.562Z,25.60
2023-05-05T10:10:20.624Z,25.90
2023-05-05T10:12:50.934Z,26.70
2023-05-05T10:15:20.479Z,27.10
2023-05-05T10:18:06.058Z,25.50
2023-05-05T10:20:41.105Z,27.10
2023-05-05T10:23:14.295Z,25.70
2023-05-05T10:26:00.148Z,26.90
2023-05-05T10:28:39.603Z,26.00
2023-05-05T10:31:24.612Z,26.30
2023-05-05T10:34:06.283Z,26.10
2023-05-05T10:36:38.117Z,26.60
2023-05-05T10:39:09.400Z,26.80
2023-05-05T10:41:39.526Z,27.10
2023-05-05T10:44:10.702Z,27.20
2023-05-05T10:46:40.935Z,27.10
2023-05-05T10:49:18.662Z,27.00
2023-05-05T10:52:00.136Z,27.20
2023-05-05T10:54:38.302Z,27.30
2023-05-05T10:57:13.027Z,27.60
2023-05-05T10:59:44.087Z,28.70
2023-05-05T11:02:29.188Z,28.20
2023-05-05T11:05:09.422Z,28.30
2023-05-05T11:07:38.268Z,28.70
2023-05-05T11:10:11.762Z,29.20
2023-05-05T11:13:21.927Z,28.80
2023-05-05T11:15:54.310Z,28.80
2023-05-05T11:18:37.658Z,28.40
2023-05-05T11:21:17.808Z,28.80
2023-05-05T11:23:53.891Z,28.20
2023-05-05T11:26:52.242Z,29.20
2023-05-05T11:29:20.509Z,28.90
2023-05-05T11:32:12.337Z,29.30
2023-05-05T11:34:50.775Z,27.00
2023-05-05T11:37:26.321Z,27.60
2023-05-05T11:40:13.659Z,28.30
2023-05-05T11:42:43.253Z,28.20
2023-05-05T11:45:24.560Z,28.10
2023-05-05T11:47:55.204Z,28.30
2023-05-05T11:50:24.549Z,27.80
2023-05-05T11:52:54.127Z,27.90
2023-05-05T11:55:24.083Z,28.50
2023-05-05T11:57:54.053Z,28.40
2023-05-05T12:00:35.672Z,28.60
2023-05-05T12:03:07.237Z,28.80
2023-05-05T12:05:36.977Z,29.10
2023-05-05T12:08:08.192Z,28.30
2023-05-05T12:10:39.026Z,28.20
2023-05-05T12:13:19.638Z,28.70
2023-05-05T12:15:48.066Z,28.60
2023-05-05T12:18:20.003Z,29.00
2023-05-05T12:20:50.917Z,29.40
2023-05-05T12:23:20.554Z,29.20
2023-05-05T12:25:50.274Z,29.00
2023-05-05T12:28:19.678Z,28.80
2023-05-05T12:30:57.830Z,28.70
2023-05-05T12:33:28.047Z,28.50
2023-05-05T12:35:57.567Z,28.20
2023-05-05T12:38:28.253Z,27.70
2023-05-05T12:40:56.648Z,26.80
2023-05-05T12:43:32.687Z,26.50
2023-05-05T12:46:08.381Z,26.60
2023-05-05T12:48:39.855Z,26.90
2023-05-05T12:51:21.159Z,27.50
2023-05-05T12:54:04.105Z,27.70
2023-05-05T12:56:37.470Z,28.20
2023-05-05T12:59:07.704Z,26.30
2023-05-05T13:01:37.158Z,26.90
2023-05-05T13:04:09.605Z,26.30
2023-05-05T13:06:39.896Z,25.40
2023-05-05T13:09:23.229Z,25.50
2023-05-05T13:11:52.752Z,24.90
2023-05-05T13:14:23.166Z,24.90
2023-05-05T13:16:53.676Z,24.80
2023-05-05T13:19:24.882Z,24.40
2023-05-05T13:21:57.544Z,24.90
2023-05-05T13:24:38.578Z,24.60
2023-05-05T13:27:16.420Z,24.20
2023-05-05T13:32:14.723Z,24.30
2023-05-05T13:34:45.331Z,23.90
2023-05-05T13:37:13.454Z,23.20
2023-05-05T13:39:44.453Z,23.50
2023-05-05T13:42:13.725Z,24.30
2023-05-05T13:44:44.380Z,23.40
2023-05-05T13:47:14.068Z,22.20
2023-05-05T13:49:42.359Z,22.80
2023-05-05T13:52:11.681Z,21.90
2023-05-05T13:54:41.088Z,21.60
2023-05-05T13:57:11.170Z,22.70
2023-05-05T13:59:39.327Z,21.60
2023-05-05T14:02:09.906Z,21.60
2023-05-05T14:04:38.282Z,22.20
2023-05-05T14:07:07.633Z,20.80
2023-05-05T14:09:36.990Z,21.80
2023-05-05T14:12:06.226Z,20.90
2023-05-05T14:14:37.078Z,22.30
2023-05-05T14:17:06.461Z,20.30
2023-05-05T14:19:34.649Z,19.90
2023-05-05T14:24:33.943Z,20.30
2023-05-05T14:27:05.601Z,19.70
2023-05-05T14:29:37.472Z,19.20
2023-05-05T14:32:07.078Z,19.90
2023-05-05T14:34:36.761Z,18.20
2023-05-05T14:39:33.447Z,16.50
2023-05-05T14:42:02.020Z,16.80
2023-05-05T14:44:32.677Z,16.10
2023-05-05T14:47:03.439Z,14.50
2023-05-05T14:49:31.720Z,14.10
2023-05-05T14:52:01.108Z,14.80
2023-05-05T14:54:30.483Z,15.00
2023-05-05T14:57:00.158Z,14.40
2023-05-05T14:59:30.782Z,13.80
2023-05-05T15:02:00.259Z,15.10
2023-05-05T15:04:31.134Z,13.00
2023-05-05T15:06:59.380Z,15.00
2023-05-05T15:14:29.684Z,13.00
2023-05-05T15:21:57.522Z,14.10
2023-05-05T15:24:26.221Z,13.30
2023-05-05T15:26:55.627Z,13.70
2023-05-05T15:29:25.040Z,15.60
2023-05-05T15:31:53.660Z,14.80
2023-05-05T15:34:21.985Z,15.10
2023-05-05T15:36:52.835Z,13.90
2023-05-05T15:39:23.626Z,14.20
2023-05-05T15:41:51.742Z,14.70
2023-05-05T15:44:21.225Z,14.80
2023-05-05T15:46:50.520Z,15.10
2023-05-05T15:49:20.151Z,14.40
2023-05-05T15:51:49.565Z,16.60
2023-05-05T15:56:50.289Z,16.50
2023-05-05T15:59:19.735Z,14.40
2023-05-05T16:01:48.148Z,14.60
2023-05-05T16:14:17.093Z,14.10
2023-05-05T16:16:46.577Z,14.10
2023-05-05T16:19:16.089Z,13.90
2023-05-05T16:21:44.317Z,13.90
2023-05-05T16:26:44.530Z,15.30
2023-05-05T16:31:45.901Z,13.70
2023-05-05T16:36:44.182Z,14.20
2023-05-05T16:39:15.154Z,13.50
2023-05-05T16:41:44.546Z,13.50
2023-05-05T16:44:14.483Z,13.40
2023-05-05T16:46:44.298Z,13.40
2023-05-05T16:49:12.567Z,14.30
2023-05-05T16:51:40.819Z,15.70
2023-05-05T16:54:11.357Z,15.10
2023-05-05T16:56:40.826Z,15.60
2023-05-05T16:59:10.487Z,13.20
2023-05-05T17:01:38.608Z,14.20
2023-05-05T17:04:10.975Z,14.80
2023-05-05T17:06:40.298Z,13.20
2023-05-05T17:09:09.761Z,13.50
2023-05-05T17:11:39.150Z,12.90
2023-05-05T17:14:08.493Z,15.20
2023-05-05T17:16:38.123Z,13.50
2023-05-05T17:19:08.841Z,13.40
2023-05-05T17:21:38.191Z,12.70
2023-05-05T17:24:08.746Z,14.90
2023-05-05T17:26:38.081Z,14.70
2023-05-05T17:29:07.505Z,12.60
2023-05-05T17:34:06.750Z,12.50
2023-05-05T17:36:37.610Z,12.30
2023-05-05T17:39:06.438Z,14.60
2023-05-05T17:41:34.858Z,12.30
2023-05-05T17:44:04.167Z,12.90
2023-05-05T17:49:04.526Z,12.20
2023-05-05T17:51:34.048Z,12.60
2023-05-05T17:54:05.157Z,13.80
2023-05-05T17:59:03.517Z,14.30
2023-05-05T18:06:30.964Z,13.60
2023-05-05T18:09:01.577Z,13.60
2023-05-05T18:11:32.436Z,12.20
2023-05-05T18:14:03.015Z,12.70
2023-05-05T18:16:31.201Z,11.90
2023-05-05T18:19:01.771Z,13.50
2023-05-05T18:21:32.101Z,12.90
2023-05-05T18:24:15.655Z,11.60
2023-05-05T18:26:53.416Z,11.80
2023-05-05T18:29:23.386Z,11.90
2023-05-05T18:31:55.830Z,11.90
2023-05-05T18:34:25.326Z,11.60
2023-05-05T18:36:55.444Z,11.70
2023-05-05T18:39:24.446Z,13.40
2023-05-05T18:41:55.120Z,11.60
2023-05-05T18:44:23.207Z,13.20
2023-05-05T18:46:52.633Z,11.50
2023-05-05T18:49:20.812Z,13.10
2023-05-05T18:54:19.933Z,11.60
2023-05-05T18:56:48.102Z,13.10
2023-05-05T18:59:18.892Z,12.50
2023-05-05T19:01:46.987Z,11.50
2023-05-05T19:04:29.556Z,13.70
2023-05-05T19:09:29.960Z,11.50
2023-05-05T19:11:58.102Z,11.60
2023-05-05T19:14:28.731Z,11.30
2023-05-05T19:16:59.033Z,13.60
2023-05-05T19:19:28.516Z,12.70
2023-05-05T19:21:58.038Z,11.10
2023-05-05T19:26:57.357Z,11.10
2023-05-05T19:29:28.044Z,11.10
2023-05-05T19:31:57.441Z,12.80
2023-05-05T19:34:27.298Z,11.00
2023-05-05T19:39:25.279Z,15.60
2023-05-05T19:41:54.645Z,11.60
2023-05-05T19:44:23.776Z,11.10
2023-05-05T19:46:53.977Z,10.80
2023-05-05T19:49:23.231Z,12.60
2023-05-05T19:54:25.586Z,10.70
2023-05-05T19:56:58.344Z,12.60
2023-05-05T19:59:29.027Z,11.10
2023-05-05T20:01:58.547Z,11.50
2023-05-05T20:04:27.908Z,10.60
2023-05-05T20:06:57.501Z,12.50
2023-05-05T20:09:25.536Z,11.60
2023-05-05T20:11:53.625Z,12.80
2023-05-05T20:14:24.411Z,13.00
2023-05-05T20:19:24.006Z,10.10
2023-05-05T20:21:52.525Z,11.90
2023-05-05T20:24:21.683Z,11.40
2023-05-05T20:26:51.291Z,10.50
2023-05-05T20:29:21.419Z,12.60
2023-05-05T20:31:49.788Z,10.70
2023-05-05T20:34:19.305Z,12.10
2023-05-05T20:36:50.089Z,12.10
2023-05-05T20:39:19.968Z,12.00
2023-05-05T20:41:48.133Z,12.40
2023-05-05T20:44:16.567Z,10.60
2023-05-05T20:46:47.278Z,10.20
2023-05-05T20:49:16.685Z,11.60
2023-05-05T20:54:14.852Z,10.80
2023-05-05T20:56:44.408Z,13.30
2023-05-05T20:59:13.742Z,13.30
2023-05-05T21:01:43.630Z,10.50
2023-05-05T21:06:42.724Z,10.70
2023-05-05T21:09:10.974Z,13.40
2023-05-05T21:11:41.682Z,10.80
2023-05-05T21:14:12.754Z,11.60
2023-05-05T21:16:43.029Z,12.00
2023-05-05T21:19:12.401Z,13.40
2023-05-05T21:21:41.683Z,12.70
2023-05-05T21:24:14.043Z,13.30
2023-05-05T21:26:45.830Z,10.90
2023-05-05T21:29:15.209Z,13.00
2023-05-05T21:31:44.620Z,12.50
2023-05-05T21:36:43.763Z,12.40
2023-05-05T21:39:13.162Z,10.90
2023-05-05T21:41:43.788Z,10.70
2023-05-05T21:44:11.906Z,13.30
2023-05-05T21:46:42.550Z,12.60
2023-05-05T21:49:15.005Z,11.00
2023-05-05T21:51:45.289Z,13.20
2023-05-05T21:54:14.639Z,10.70
2023-05-05T21:56:44.243Z,11.50
2023-05-05T21:59:12.397Z,10.70
2023-05-05T22:01:42.973Z,12.70
2023-05-05T22:04:12.333Z,11.00
2023-05-05T22:09:10.170Z,10.90
2023-05-05T22:11:40.702Z,12.90
2023-05-05T22:14:11.427Z,10.50
2023-05-05T22:16:40.961Z,13.00
2023-05-05T22:19:09.479Z,12.90
2023-05-05T22:24:07.447Z,11.50
2023-05-05T22:26:36.797Z,12.60
2023-05-05T22:29:06.100Z,11.20
2023-05-05T22:31:37.112Z,12.80
2023-05-05T22:34:07.934Z,12.40
2023-05-05T22:36:36.142Z,11.00
2023-05-05T22:39:04.404Z,11.40
2023-05-05T22:44:00.836Z,11.40
2023-05-05T22:46:28.838Z,11.40
2023-05-05T22:48:59.615Z,12.10
2023-05-05T22:51:27.989Z,10.10
2023-05-05T22:53:56.156Z,12.40
2023-05-05T22:56:26.684Z,11.60
2023-05-05T22:58:56.022Z,12.50
2023-05-05T23:01:25.604Z,12.70
2023-05-05T23:03:53.827Z,12.60
2023-05-05T23:06:23.455Z,11.40
2023-05-05T23:11:23.924Z,12.40
2023-05-05T23:13:52.241Z,11.20
2023-05-05T23:16:24.101Z,11.60
2023-05-05T23:21:24.493Z,9.90
2023-05-05T23:23:54.972Z,11.90
2023-05-05T23:26:24.506Z,10.60
2023-05-05T23:31:22.293Z,12.30
2023-05-05T23:33:51.668Z,10.00
2023-05-05T23:36:19.873Z,10.50
2023-05-05T23:38:49.344Z,9.90
2023-05-05T23:41:19.513Z,11.90
2023-05-05T23:43:48.984Z,11.90
2023-05-05T23:46:17.119Z,11.70
2023-05-05T23:48:46.567Z,10.70
2023-05-05T23:51:15.930Z,11.70
2023-05-05T23:53:46.421Z,11.90
2023-05-05T23:56:15.856Z,10.60
